sensor_id;sensor_type;location;lat;lon;timestamp;P1;durP1;ratioP1;P2;durP2;ratioP2
22308;SDS011;11322;50.858;-1.778;2022-12-29T00:00:34;3.65;;;1.1;;
22308;SDS011;11322;50.858;-1.778;2022-12-29T00:05:34;2.45;;;1.2;;
22308;SDS011;11322;50.858;-1.778;2022-12-29T00:10:34;9.6;;;1.5;;
22308;SDS011;11322;50.858;-1.778;2022-12-29T00:15:35;1.8;;;0.6;;
22308;SDS011;11322;50.858;-1.778;2022-12-29T00:20:34;3.35;;;1.45;;
22308;SDS011;11322;50.858;-1.778;2022-12-29T00:25:35;4.65;;;2.85;;
22308;SDS011;11322;50.858;-1.778;2022-12-29T00:30:34;9.95;;;2.05;;
22308;SDS011;11322;50.858;-1.778;2022-12-29T00:35:35;1.6;;;0.8;;
22308;SDS011;11322;50.858;-1.778;2022-12-29T00:40:34;3.55;;;0.5;;
22308;SDS011;11322;50.858;-1.778;2022-12-29T00:45:34;3.05;;;1.15;;
22308;SDS011;11322;50.858;-1.778;2022-12-29T00:50:34;1.15;;;0.7;;
22308;SDS011;11322;50.858;-1.778;2022-12-29T00:55:36;1.6;;;0.65;;
22308;SDS011;11322;50.858;-1.778;2022-12-29T01:00:34;15.0;;;4.1;;
22308;SDS011;11322;50.858;-1.778;2022-12-29T01:05:35;5.1;;;1.9;;
22308;SDS011;11322;50.858;-1.778;2022-12-29T01:10:34;6.95;;;1.45;;
22308;SDS011;11322;50.858;-1.778;2022-12-29T01:15:34;2.6;;;1.35;;
22308;SDS011;11322;50.858;-1.778;2022-12-29T01:20:34;5.95;;;1.5;;
22308;SDS011;11322;50.858;-1.778;2022-12-29T01:25:34;7.25;;;2.6;;
22308;SDS011;11322;50.858;-1.778;2022-12-29T01:30:34;7.3;;;1.6;;
22308;SDS011;11322;50.858;-1.778;2022-12-29T01:35:34;1.7;;;0.5;;
22308;SDS011;11322;50.858;-1.778;2022-12-29T01:40:34;2.75;;;1.5;;
22308;SDS011;11322;50.858;-1.778;2022-12-29T01:45:34;8.05;;;1.8;;
22308;SDS011;11322;50.858;-1.778;2022-12-29T01:50:35;5.7;;;2.15;;
22308;SDS011;11322;50.858;-1.778;2022-12-29T01:55:35;5.95;;;3.55;;
22308;SDS011;11322;50.858;-1.778;2022-12-29T02:00:34;3.4;;;2.35;;
22308;SDS011;11322;50.858;-1.778;2022-12-29T02:05:36;8.9;;;2.3;;
22308;SDS011;11322;50.858;-1.778;2022-12-29T02:10:34;6.55;;;1.3;;
22308;SDS011;11322;50.858;-1.778;2022-12-29T02:15:35;19.65;;;3.25;;
22308;SDS011;11322;50.858;-1.778;2022-12-29T02:20:55;2.75;;;1.65;;
22308;SDS011;11322;50.858;-1.778;2022-12-29T02:25:40;10.8;;;2.65;;
22308;SDS011;11322;50.858;-1.778;2022-12-29T02:30:36;10.25;;;1.95;;
22308;SDS011;11322;50.858;-1.778;2022-12-29T02:35:35;11.5;;;2.65;;
22308;SDS011;11322;50.858;-1.778;2022-12-29T02:40:36;10.85;;;2.25;;
22308;SDS011;11322;50.858;-1.778;2022-12-29T02:45:36;2.4;;;1.15;;
22308;SDS011;11322;50.858;-1.778;2022-12-29T02:50:34;4.0;;;1.95;;
22308;SDS011;11322;50.858;-1.778;2022-12-29T02:55:34;8.8;;;1.9;;
22308;SDS011;11322;50.858;-1.778;2022-12-29T03:00:34;6.75;;;2.55;;
22308;SDS011;11322;50.858;-1.778;2022-12-29T03:05:39;2.25;;;0.8;;
22308;SDS011;11322;50.858;-1.778;2022-12-29T03:10:37;0.75;;;0.3;;
22308;SDS011;11322;50.858;-1.778;2022-12-29T03:15:34;1.35;;;1.15;;
22308;SDS011;11322;50.858;-1.778;2022-12-29T03:20:35;2.0;;;1.3;;
22308;SDS011;11322;50.858;-1.778;2022-12-29T03:25:35;10.8;;;1.75;;
22308;SDS011;11322;50.858;-1.778;2022-12-29T03:30:34;4.8;;;1.85;;
22308;SDS011;11322;50.858;-1.778;2022-12-29T03:35:34;2.5;;;0.5;;
22308;SDS011;11322;50.858;-1.778;2022-12-29T03:40:34;3.05;;;1.75;;
22308;SDS011;11322;50.858;-1.778;2022-12-29T03:45:34;2.6;;;1.5;;
22308;SDS011;11322;50.858;-1.778;2022-12-29T03:50:34;1.2;;;0.7;;
22308;SDS011;11322;50.858;-1.778;2022-12-29T03:55:34;6.35;;;1.9;;
22308;SDS011;11322;50.858;-1.778;2022-12-29T04:00:34;5.0;;;2.65;;
22308;SDS011;11322;50.858;-1.778;2022-12-29T04:05:34;5.5;;;1.9;;
22308;SDS011;11322;50.858;-1.778;2022-12-29T04:10:34;2.45;;;1.0;;
22308;SDS011;11322;50.858;-1.778;2022-12-29T04:15:34;2.3;;;2.0;;
22308;SDS011;11322;50.858;-1.778;2022-12-29T04:20:34;1.6;;;0.8;;
22308;SDS011;11322;50.858;-1.778;2022-12-29T04:25:34;1.35;;;1.15;;
22308;SDS011;11322;50.858;-1.778;2022-12-29T04:30:34;5.3;;;0.55;;
22308;SDS011;11322;50.858;-1.778;2022-12-29T04:35:34;1.0;;;0.7;;
22308;SDS011;11322;50.858;-1.778;2022-12-29T04:40:34;5.7;;;0.8;;
22308;SDS011;11322;50.858;-1.778;2022-12-29T04:45:34;2.1;;;0.8;;
22308;SDS011;11322;50.858;-1.778;2022-12-29T04:50:34;6.4;;;1.25;;
22308;SDS011;11322;50.858;-1.778;2022-12-29T04:55:34;0.3;;;0.3;;
22308;SDS011;11322;50.858;-1.778;2022-12-29T05:00:34;0.85;;;0.7;;
22308;SDS011;11322;50.858;-1.778;2022-12-29T05:05:34;1.95;;;0.5;;
22308;SDS011;11322;50.858;-1.778;2022-12-29T05:10:34;0.2;;;0.2;;
22308;SDS011;11322;50.858;-1.778;2022-12-29T05:15:34;0.1;;;0.1;;
22308;SDS011;11322;50.858;-1.778;2022-12-29T05:20:34;0.2;;;0.2;;
22308;SDS011;11322;50.858;-1.778;2022-12-29T05:25:34;0.45;;;0.45;;
22308;SDS011;11322;50.858;-1.778;2022-12-29T05:30:34;1.1;;;0.4;;
22308;SDS011;11322;50.858;-1.778;2022-12-29T05:35:34;0.1;;;0.1;;
22308;SDS011;11322;50.858;-1.778;2022-12-29T05:40:34;1.1;;;0.45;;
22308;SDS011;11322;50.858;-1.778;2022-12-29T05:45:35;0.8;;;0.4;;
22308;SDS011;11322;50.858;-1.778;2022-12-29T05:50:34;0.75;;;0.5;;
22308;SDS011;11322;50.858;-1.778;2022-12-29T05:55:34;0.65;;;0.55;;
22308;SDS011;11322;50.858;-1.778;2022-12-29T06:00:34;0.4;;;0.4;;
22308;SDS011;11322;50.858;-1.778;2022-12-29T06:05:34;1.6;;;0.55;;
22308;SDS011;11322;50.858;-1.778;2022-12-29T06:10:34;0.3;;;0.3;;
22308;SDS011;11322;50.858;-1.778;2022-12-29T06:15:35;2.45;;;0.7;;
22308;SDS011;11322;50.858;-1.778;2022-12-29T06:20:34;0.1;;;0.1;;
22308;SDS011;11322;50.858;-1.778;2022-12-29T06:25:34;1.75;;;0.55;;
22308;SDS011;11322;50.858;-1.778;2022-12-29T06:30:34;1.05;;;0.5;;
22308;SDS011;11322;50.858;-1.778;2022-12-29T06:35:34;0.9;;;0.5;;
22308;SDS011;11322;50.858;-1.778;2022-12-29T06:40:34;0.25;;;0.25;;
22308;SDS011;11322;50.858;-1.778;2022-12-29T06:45:34;0.4;;;0.4;;
22308;SDS011;11322;50.858;-1.778;2022-12-29T06:50:34;5.4;;;0.7;;
22308;SDS011;11322;50.858;-1.778;2022-12-29T06:55:34;7.7;;;0.9;;
22308;SDS011;11322;50.858;-1.778;2022-12-29T07:00:34;0.25;;;0.25;;
22308;SDS011;11322;50.858;-1.778;2022-12-29T07:05:34;0.75;;;0.7;;
22308;SDS011;11322;50.858;-1.778;2022-12-29T07:10:34;2.45;;;0.3;;
22308;SDS011;11322;50.858;-1.778;2022-12-29T07:15:39;0.8;;;0.8;;
22308;SDS011;11322;50.858;-1.778;2022-12-29T07:20:34;4.25;;;0.45;;
22308;SDS011;11322;50.858;-1.778;2022-12-29T07:25:34;0.8;;;0.8;;
22308;SDS011;11322;50.858;-1.778;2022-12-29T07:30:36;1.85;;;0.35;;
22308;SDS011;11322;50.858;-1.778;2022-12-29T07:35:34;1.0;;;0.7;;
22308;SDS011;11322;50.858;-1.778;2022-12-29T07:40:34;0.1;;;0.1;;
22308;SDS011;11322;50.858;-1.778;2022-12-29T07:45:34;0.25;;;0.25;;
22308;SDS011;11322;50.858;-1.778;2022-12-29T07:50:37;1.45;;;1.05;;
22308;SDS011;11322;50.858;-1.778;2022-12-29T07:55:38;0.35;;;0.3;;
22308;SDS011;11322;50.858;-1.778;2022-12-29T08:00:35;4.0;;;0.85;;
22308;SDS011;11322;50.858;-1.778;2022-12-29T08:05:35;2.85;;;0.3;;
22308;SDS011;11322;50.858;-1.778;2022-12-29T08:10:35;4.5;;;0.95;;
22308;SDS011;11322;50.858;-1.778;2022-12-29T08:15:34;0.2;;;0.2;;
22308;SDS011;11322;50.858;-1.778;2022-12-29T08:20:34;0.1;;;0.1;;
22308;SDS011;11322;50.858;-1.778;2022-12-29T08:25:34;0.1;;;0.1;;
22308;SDS011;11322;50.858;-1.778;2022-12-29T08:30:35;0.1;;;0.1;;
22308;SDS011;11322;50.858;-1.778;2022-12-29T08:35:34;0.05;;;0.05;;
22308;SDS011;11322;50.858;-1.778;2022-12-29T08:40:34;0.35;;;0.3;;
22308;SDS011;11322;50.858;-1.778;2022-12-29T08:45:34;1.5;;;0.65;;
22308;SDS011;11322;50.858;-1.778;2022-12-29T08:50:39;0.2;;;0.2;;
22308;SDS011;11322;50.858;-1.778;2022-12-29T08:55:34;0.1;;;0.1;;
22308;SDS011;11322;50.858;-1.778;2022-12-29T09:00:34;0.1;;;0.1;;
22308;SDS011;11322;50.858;-1.778;2022-12-29T09:05:35;0.1;;;0.1;;
22308;SDS011;11322;50.858;-1.778;2022-12-29T09:10:34;0.1;;;0.1;;
22308;SDS011;11322;50.858;-1.778;2022-12-29T09:15:34;0.6;;;0.45;;
22308;SDS011;11322;50.858;-1.778;2022-12-29T09:20:34;0.1;;;0.1;;
22308;SDS011;11322;50.858;-1.778;2022-12-29T09:25:34;2.3;;;0.7;;
22308;SDS011;11322;50.858;-1.778;2022-12-29T09:30:34;0.5;;;0.3;;
22308;SDS011;11322;50.858;-1.778;2022-12-29T09:35:34;4.45;;;0.25;;
22308;SDS011;11322;50.858;-1.778;2022-12-29T09:40:34;0.1;;;0.1;;
22308;SDS011;11322;50.858;-1.778;2022-12-29T09:45:36;0.1;;;0.1;;
22308;SDS011;11322;50.858;-1.778;2022-12-29T09:50:34;0.1;;;0.1;;
22308;SDS011;11322;50.858;-1.778;2022-12-29T09:55:35;2.75;;;1.3;;
22308;SDS011;11322;50.858;-1.778;2022-12-29T10:00:36;3.15;;;0.85;;
22308;SDS011;11322;50.858;-1.778;2022-12-29T10:05:35;0.6;;;0.4;;
22308;SDS011;11322;50.858;-1.778;2022-12-29T10:10:35;2.5;;;0.7;;
22308;SDS011;11322;50.858;-1.778;2022-12-29T10:15:39;0.1;;;0.1;;
22308;SDS011;11322;50.858;-1.778;2022-12-29T10:20:36;2.25;;;0.4;;
22308;SDS011;11322;50.858;-1.778;2022-12-29T10:25:34;1.05;;;1.05;;
22308;SDS011;11322;50.858;-1.778;2022-12-29T10:30:34;0.6;;;0.4;;
22308;SDS011;11322;50.858;-1.778;2022-12-29T10:35:34;0.45;;;0.4;;
22308;SDS011;11322;50.858;-1.778;2022-12-29T10:40:36;0.6;;;0.6;;
22308;SDS011;11322;50.858;-1.778;2022-12-29T10:45:34;1.25;;;1.25;;
22308;SDS011;11322;50.858;-1.778;2022-12-29T10:50:34;5.95;;;1.8;;
22308;SDS011;11322;50.858;-1.778;2022-12-29T10:55:35;0.4;;;0.4;;
22308;SDS011;11322;50.858;-1.778;2022-12-29T11:00:34;0.1;;;0.1;;
22308;SDS011;11322;50.858;-1.778;2022-12-29T11:05:35;0.2;;;0.2;;
22308;SDS011;11322;50.858;-1.778;2022-12-29T11:10:35;2.8;;;1.05;;
22308;SDS011;11322;50.858;-1.778;2022-12-29T11:15:38;6.5;;;0.9;;
22308;SDS011;11322;50.858;-1.778;2022-12-29T11:20:34;3.2;;;1.25;;
22308;SDS011;11322;50.858;-1.778;2022-12-29T11:25:34;1.9;;;1.2;;
22308;SDS011;11322;50.858;-1.778;2022-12-29T11:30:34;0.4;;;0.4;;
22308;SDS011;11322;50.858;-1.778;2022-12-29T11:35:35;9.75;;;1.45;;
22308;SDS011;11322;50.858;-1.778;2022-12-29T11:40:37;3.55;;;0.85;;
22308;SDS011;11322;50.858;-1.778;2022-12-29T11:45:34;7.8;;;2.15;;
22308;SDS011;11322;50.858;-1.778;2022-12-29T11:50:35;2.4;;;0.4;;
22308;SDS011;11322;50.858;-1.778;2022-12-29T11:55:34;0.4;;;0.4;;
22308;SDS011;11322;50.858;-1.778;2022-12-29T12:00:34;8.85;;;1.85;;
22308;SDS011;11322;50.858;-1.778;2022-12-29T12:05:36;1.6;;;0.95;;
22308;SDS011;11322;50.858;-1.778;2022-12-29T12:11:58;12.4;;;2.2;;
22308;SDS011;11322;50.858;-1.778;2022-12-29T12:15:35;5.5;;;1.75;;
22308;SDS011;11322;50.858;-1.778;2022-12-29T12:25:35;1.5;;;0.7;;
22308;SDS011;11322;50.858;-1.778;2022-12-29T12:30:36;4.25;;;1.15;;
22308;SDS011;11322;50.858;-1.778;2022-12-29T12:35:36;3.8;;;0.95;;
22308;SDS011;11322;50.858;-1.778;2022-12-29T12:40:39;9.15;;;0.85;;
22308;SDS011;11322;50.858;-1.778;2022-12-29T12:45:42;3.25;;;1.5;;
22308;SDS011;11322;50.858;-1.778;2022-12-29T12:50:40;0.1;;;0.1;;
22308;SDS011;11322;50.858;-1.778;2022-12-29T12:55:37;2.0;;;1.0;;
22308;SDS011;11322;50.858;-1.778;2022-12-29T13:00:36;3.5;;;1.35;;
22308;SDS011;11322;50.858;-1.778;2022-12-29T13:05:38;1.0;;;1.0;;
22308;SDS011;11322;50.858;-1.778;2022-12-29T13:10:36;2.05;;;0.7;;
22308;SDS011;11322;50.858;-1.778;2022-12-29T13:15:37;0.7;;;0.7;;
22308;SDS011;11322;50.858;-1.778;2022-12-29T13:20:35;4.65;;;0.75;;
22308;SDS011;11322;50.858;-1.778;2022-12-29T13:25:35;0.9;;;0.4;;
22308;SDS011;11322;50.858;-1.778;2022-12-29T13:30:34;0.85;;;0.85;;
22308;SDS011;11322;50.858;-1.778;2022-12-29T13:35:38;3.35;;;0.9;;
22308;SDS011;11322;50.858;-1.778;2022-12-29T13:40:35;0.8;;;0.8;;
22308;SDS011;11322;50.858;-1.778;2022-12-29T13:45:34;8.35;;;1.0;;
22308;SDS011;11322;50.858;-1.778;2022-12-29T13:50:35;5.9;;;3.3;;
22308;SDS011;11322;50.858;-1.778;2022-12-29T13:55:35;4.05;;;1.4;;
22308;SDS011;11322;50.858;-1.778;2022-12-29T14:00:35;0.85;;;0.45;;
22308;SDS011;11322;50.858;-1.778;2022-12-29T14:05:34;3.35;;;1.2;;
22308;SDS011;11322;50.858;-1.778;2022-12-29T14:10:35;5.9;;;0.9;;
22308;SDS011;11322;50.858;-1.778;2022-12-29T14:15:34;3.3;;;0.75;;
22308;SDS011;11322;50.858;-1.778;2022-12-29T14:20:34;4.45;;;1.1;;
22308;SDS011;11322;50.858;-1.778;2022-12-29T14:26:00;0.5;;;0.5;;
22308;SDS011;11322;50.858;-1.778;2022-12-29T14:30:47;0.1;;;0.1;;
22308;SDS011;11322;50.858;-1.778;2022-12-29T14:35:38;3.9;;;1.0;;
22308;SDS011;11322;50.858;-1.778;2022-12-29T14:40:34;0.6;;;0.6;;
22308;SDS011;11322;50.858;-1.778;2022-12-29T14:45:34;0.3;;;0.2;;
22308;SDS011;11322;50.858;-1.778;2022-12-29T14:50:35;0.85;;;0.85;;
22308;SDS011;11322;50.858;-1.778;2022-12-29T14:55:37;1.8;;;0.5;;
22308;SDS011;11322;50.858;-1.778;2022-12-29T15:00:34;0.45;;;0.4;;
22308;SDS011;11322;50.858;-1.778;2022-12-29T15:05:36;0.8;;;0.8;;
22308;SDS011;11322;50.858;-1.778;2022-12-29T15:10:36;4.55;;;1.0;;
22308;SDS011;11322;50.858;-1.778;2022-12-29T15:15:36;1.1;;;1.0;;
22308;SDS011;11322;50.858;-1.778;2022-12-29T15:20:34;4.5;;;0.9;;
22308;SDS011;11322;50.858;-1.778;2022-12-29T15:25:34;2.1;;;0.65;;
22308;SDS011;11322;50.858;-1.778;2022-12-29T15:30:34;0.3;;;0.3;;
22308;SDS011;11322;50.858;-1.778;2022-12-29T15:35:34;1.75;;;0.8;;
22308;SDS011;11322;50.858;-1.778;2022-12-29T15:40:34;2.8;;;1.15;;
22308;SDS011;11322;50.858;-1.778;2022-12-29T15:45:34;2.05;;;0.5;;
22308;SDS011;11322;50.858;-1.778;2022-12-29T15:50:34;0.65;;;0.65;;
22308;SDS011;11322;50.858;-1.778;2022-12-29T15:55:34;4.4;;;0.85;;
22308;SDS011;11322;50.858;-1.778;2022-12-29T16:00:35;1.9;;;1.15;;
22308;SDS011;11322;50.858;-1.778;2022-12-29T16:05:34;0.3;;;0.3;;
22308;SDS011;11322;50.858;-1.778;2022-12-29T16:10:35;1.9;;;1.25;;
22308;SDS011;11322;50.858;-1.778;2022-12-29T16:15:34;2.2;;;1.85;;
22308;SDS011;11322;50.858;-1.778;2022-12-29T16:20:37;6.6;;;1.9;;
22308;SDS011;11322;50.858;-1.778;2022-12-29T16:25:34;2.15;;;1.25;;
22308;SDS011;11322;50.858;-1.778;2022-12-29T16:30:34;0.8;;;0.7;;
22308;SDS011;11322;50.858;-1.778;2022-12-29T16:35:39;1.3;;;1.0;;
22308;SDS011;11322;50.858;-1.778;2022-12-29T16:40:37;2.85;;;1.3;;
22308;SDS011;11322;50.858;-1.778;2022-12-29T16:46:15;6.15;;;1.25;;
22308;SDS011;11322;50.858;-1.778;2022-12-29T16:50:34;2.7;;;1.8;;
22308;SDS011;11322;50.858;-1.778;2022-12-29T16:55:34;4.55;;;1.7;;
22308;SDS011;11322;50.858;-1.778;2022-12-29T17:00:34;5.35;;;2.3;;
22308;SDS011;11322;50.858;-1.778;2022-12-29T17:05:34;9.25;;;2.35;;
22308;SDS011;11322;50.858;-1.778;2022-12-29T17:10:34;7.25;;;2.45;;
22308;SDS011;11322;50.858;-1.778;2022-12-29T17:15:34;7.0;;;2.2;;
22308;SDS011;11322;50.858;-1.778;2022-12-29T17:20:34;2.0;;;1.9;;
22308;SDS011;11322;50.858;-1.778;2022-12-29T17:25:35;3.05;;;1.95;;
22308;SDS011;11322;50.858;-1.778;2022-12-29T17:30:34;2.4;;;1.15;;
22308;SDS011;11322;50.858;-1.778;2022-12-29T17:35:34;12.95;;;2.65;;
22308;SDS011;11322;50.858;-1.778;2022-12-29T17:40:34;1.9;;;1.8;;
22308;SDS011;11322;50.858;-1.778;2022-12-29T17:45:34;2.6;;;2.05;;
22308;SDS011;11322;50.858;-1.778;2022-12-29T17:50:34;1.1;;;1.0;;
22308;SDS011;11322;50.858;-1.778;2022-12-29T17:55:34;2.75;;;2.55;;
22308;SDS011;11322;50.858;-1.778;2022-12-29T18:00:34;5.35;;;2.0;;
22308;SDS011;11322;50.858;-1.778;2022-12-29T18:05:34;7.45;;;2.8;;
22308;SDS011;11322;50.858;-1.778;2022-12-29T18:10:34;2.5;;;2.2;;
22308;SDS011;11322;50.858;-1.778;2022-12-29T18:15:34;2.75;;;2.6;;
22308;SDS011;11322;50.858;-1.778;2022-12-29T18:20:34;6.0;;;5.0;;
22308;SDS011;11322;50.858;-1.778;2022-12-29T18:25:37;3.55;;;3.25;;
22308;SDS011;11322;50.858;-1.778;2022-12-29T18:30:34;2.2;;;2.0;;
22308;SDS011;11322;50.858;-1.778;2022-12-29T18:35:35;1.5;;;1.3;;
22308;SDS011;11322;50.858;-1.778;2022-12-29T18:40:34;1.8;;;1.6;;
22308;SDS011;11322;50.858;-1.778;2022-12-29T18:45:34;6.45;;;1.9;;
22308;SDS011;11322;50.858;-1.778;2022-12-29T18:50:34;3.7;;;3.4;;
22308;SDS011;11322;50.858;-1.778;2022-12-29T18:55:34;11.5;;;4.5;;
22308;SDS011;11322;50.858;-1.778;2022-12-29T19:00:34;16.5;;;4.8;;
22308;SDS011;11322;50.858;-1.778;2022-12-29T19:05:34;6.4;;;4.1;;
22308;SDS011;11322;50.858;-1.778;2022-12-29T19:10:34;4.15;;;2.4;;
22308;SDS011;11322;50.858;-1.778;2022-12-29T19:15:34;6.05;;;2.0;;
22308;SDS011;11322;50.858;-1.778;2022-12-29T19:20:35;5.75;;;1.85;;
22308;SDS011;11322;50.858;-1.778;2022-12-29T19:25:34;2.6;;;2.1;;
22308;SDS011;11322;50.858;-1.778;2022-12-29T19:30:34;1.8;;;1.7;;
22308;SDS011;11322;50.858;-1.778;2022-12-29T19:35:34;5.25;;;2.55;;
22308;SDS011;11322;50.858;-1.778;2022-12-29T19:40:34;4.55;;;2.0;;
22308;SDS011;11322;50.858;-1.778;2022-12-29T19:45:36;11.25;;;4.3;;
22308;SDS011;11322;50.858;-1.778;2022-12-29T19:50:34;9.0;;;2.4;;
22308;SDS011;11322;50.858;-1.778;2022-12-29T19:55:34;3.35;;;2.7;;
22308;SDS011;11322;50.858;-1.778;2022-12-29T20:00:34;11.9;;;2.15;;
22308;SDS011;11322;50.858;-1.778;2022-12-29T20:05:34;1.9;;;1.8;;
22308;SDS011;11322;50.858;-1.778;2022-12-29T20:10:34;4.6;;;2.35;;
22308;SDS011;11322;50.858;-1.778;2022-12-29T20:15:34;2.25;;;2.0;;
22308;SDS011;11322;50.858;-1.778;2022-12-29T20:20:34;2.45;;;2.25;;
22308;SDS011;11322;50.858;-1.778;2022-12-29T20:25:34;2.8;;;1.85;;
22308;SDS011;11322;50.858;-1.778;2022-12-29T20:30:34;3.8;;;1.9;;
22308;SDS011;11322;50.858;-1.778;2022-12-29T20:35:34;3.1;;;1.6;;
22308;SDS011;11322;50.858;-1.778;2022-12-29T20:40:34;1.45;;;1.35;;
22308;SDS011;11322;50.858;-1.778;2022-12-29T20:45:34;2.2;;;1.15;;
22308;SDS011;11322;50.858;-1.778;2022-12-29T20:50:34;3.65;;;0.6;;
22308;SDS011;11322;50.858;-1.778;2022-12-29T20:55:34;1.25;;;1.2;;
22308;SDS011;11322;50.858;-1.778;2022-12-29T21:00:34;5.25;;;1.9;;
22308;SDS011;11322;50.858;-1.778;2022-12-29T21:05:35;8.65;;;2.0;;
22308;SDS011;11322;50.858;-1.778;2022-12-29T21:10:34;2.85;;;1.7;;
22308;SDS011;11322;50.858;-1.778;2022-12-29T21:15:34;4.25;;;1.95;;
22308;SDS011;11322;50.858;-1.778;2022-12-29T21:20:39;1.0;;;1.0;;
22308;SDS011;11322;50.858;-1.778;2022-12-29T21:25:34;3.3;;;2.1;;
22308;SDS011;11322;50.858;-1.778;2022-12-29T21:30:34;0.85;;;0.85;;
22308;SDS011;11322;50.858;-1.778;2022-12-29T21:35:34;3.8;;;2.45;;
22308;SDS011;11322;50.858;-1.778;2022-12-29T21:40:34;8.1;;;2.8;;
22308;SDS011;11322;50.858;-1.778;2022-12-29T21:45:34;1.9;;;1.8;;
22308;SDS011;11322;50.858;-1.778;2022-12-29T21:50:35;3.25;;;1.9;;
22308;SDS011;11322;50.858;-1.778;2022-12-29T21:55:34;5.9;;;2.25;;
22308;SDS011;11322;50.858;-1.778;2022-12-29T22:00:34;12.6;;;3.5;;
22308;SDS011;11322;50.858;-1.778;2022-12-29T22:05:34;4.75;;;3.25;;
22308;SDS011;11322;50.858;-1.778;2022-12-29T22:10:37;9.65;;;3.95;;
22308;SDS011;11322;50.858;-1.778;2022-12-29T22:15:39;10.6;;;5.25;;
22308;SDS011;11322;50.858;-1.778;2022-12-29T22:20:34;5.85;;;5.2;;
22308;SDS011;11322;50.858;-1.778;2022-12-29T22:25:34;4.0;;;3.45;;
22308;SDS011;11322;50.858;-1.778;2022-12-29T22:30:34;5.05;;;3.25;;
22308;SDS011;11322;50.858;-1.778;2022-12-29T22:35:34;5.5;;;4.0;;
22308;SDS011;11322;50.858;-1.778;2022-12-29T22:40:34;6.9;;;3.4;;
22308;SDS011;11322;50.858;-1.778;2022-12-29T22:45:34;3.8;;;2.95;;
22308;SDS011;11322;50.858;-1.778;2022-12-29T22:50:34;10.0;;;3.0;;
22308;SDS011;11322;50.858;-1.778;2022-12-29T22:55:34;12.75;;;3.55;;
22308;SDS011;11322;50.858;-1.778;2022-12-29T23:00:34;2.4;;;1.8;;
22308;SDS011;11322;50.858;-1.778;2022-12-29T23:05:34;2.85;;;1.3;;
22308;SDS011;11322;50.858;-1.778;2022-12-29T23:10:34;5.7;;;1.8;;
22308;SDS011;11322;50.858;-1.778;2022-12-29T23:15:34;2.3;;;2.05;;
22308;SDS011;11322;50.858;-1.778;2022-12-29T23:20:34;2.8;;;1.7;;
22308;SDS011;11322;50.858;-1.778;2022-12-29T23:25:34;2.2;;;1.75;;
22308;SDS011;11322;50.858;-1.778;2022-12-29T23:30:34;6.65;;;1.9;;
22308;SDS011;11322;50.858;-1.778;2022-12-29T23:35:34;2.15;;;2.05;;
22308;SDS011;11322;50.858;-1.778;2022-12-29T23:40:34;2.35;;;2.05;;
22308;SDS011;11322;50.858;-1.778;2022-12-29T23:45:34;4.1;;;1.3;;
22308;SDS011;11322;50.858;-1.778;2022-12-29T23:50:38;1.4;;;1.2;;
22308;SDS011;11322;50.858;-1.778;2022-12-29T23:55:34;4.0;;;1.0;;
